METAR Data
IDs: Format: Raw Decoded Include TAF

Data at: 1525 UTC 27 Nov 2021

SANT 271500Z 09004KT CAVOK 30/16 Q1004